Terminal Aerodrome Forecast
Issued by NWS Melbourne, FL

Home | Current Version | Previous Version | Text Only | Print | Product List | Glossary On
Versions: 1 2 3 4 5 6 7 8 9 10 11 12 13 14
394
FTUS42 KMLB 141726
TAFMLB
TAF
KMLB 141726Z 1418/1518 07011KT P6SM BKN040
     FM150200 07009KT P6SM BKN040
     FM151000 10008KT P6SM BKN100
     FM151300 11009KT P6SM BKN050
     FM151500 12015G21KT P6SM BKN050=

USA.gov is the U.S. government's official web portal to all federal, state and local government web resources and services.